Terminal Aerodrome Forecast
Issued by NWS Spokane, WA

Home | Current Version | Previous Version | Text Only | Print | Product List | Glossary On
Versions: 1 2 3 4 5 6 7 8 9 10 11 12
000
FTUS46 KOTX 231131
TAFLWS
TAF
KLWS 231131Z 2312/2412 00000KT P6SM VCSH SCT040 BKN080
     FM231400 19006KT P6SM -SHRA BKN035 OVC050
     FM231800 28012G22KT P6SM VCSH SCT050 BKN080
     FM240300 17006KT P6SM -RA SCT030 OVC050=

USA.gov is the U.S. government's official web portal to all federal, state and local government web resources and services.